ENTC/TOS METAR and TAF weather

Enter ICAO airport designator
Station Type Date Time Source
ENTC METAR 2018/07/19 07:20 UTC NOAA

ENTC 190720Z 20005KT 140V240 9999 FEW068 20/13 Q1015 NOSIG RMK WIND 2600FT 35008KT


Station Type Date Time Source
ENTC Decoded METAR 2018/07/19 07:20 UTC NOAA

Tromso / Langnes, Norway (ENTC) 69-41N 018-55E 10M
Jul 19, 2018 - 03:20 AM EDT / 2018.07.19 0720 UTC
Wind: from the SSW (200 degrees) at 6 MPH (5 KT) (direction variable):0
Visibility: greater than 7 mile(s):0
Sky conditions: mostly clear
Temperature: 68 F (20 C)
Dew Point: 55 F (13 C)
Relative Humidity: 64%
Pressure (altimeter): 29.97 in. Hg (1015 hPa)
ob: ENTC 190720Z 20005KT 140V240 9999 FEW068 20/13 Q1015 NOSIG RMK WIND 2600FT 35008KT
cycle: 7

Station Type Date Time Source
ENTC TAF 2018/07/19 06:58 UTC NOAA

TAF ENTC 190500Z 1906/2006 VRB08KT 9999 FEW070
TEMPO 1915/1924 4000 SHRA BKN012 BKN020CB
TEMPO 1906/1918 25010KT


Example: see airport list